sensor_id;sensor_type;location;lat;lon;timestamp;temperature;humidity
70151;DHT22;57517;43.562;19.540;2023-04-24T00:01:48;281.90;2278.40
70151;DHT22;57517;43.562;19.540;2023-04-24T00:04:14;281.90;2278.40
70151;DHT22;57517;43.562;19.540;2023-04-24T00:06:42;281.90;2278.40
70151;DHT22;57517;43.562;19.540;2023-04-24T00:09:11;282.00;2278.40
70151;DHT22;57517;43.562;19.540;2023-04-24T00:11:37;282.10;2278.40
70151;DHT22;57517;43.562;19.540;2023-04-24T00:14:03;282.10;2278.40
70151;DHT22;57517;43.562;19.540;2023-04-24T00:16:29;282.10;2278.40
70151;DHT22;57517;43.562;19.540;2023-04-24T00:18:55;282.00;2278.40
70151;DHT22;57517;43.562;19.540;2023-04-24T00:21:21;281.90;2278.40
70151;DHT22;57517;43.562;19.540;2023-04-24T00:23:47;281.60;2278.40
70151;DHT22;57517;43.562;19.540;2023-04-24T00:26:13;256.80;2252.80
70151;DHT22;57517;43.562;19.540;2023-04-24T00:28:39;256.70;2252.80
70151;DHT22;57517;43.562;19.540;2023-04-24T00:31:04;256.70;2252.80
70151;DHT22;57517;43.562;19.540;2023-04-24T00:33:30;256.90;2252.80
70151;DHT22;57517;43.562;19.540;2023-04-24T00:35:56;256.90;2252.80
70151;DHT22;57517;43.562;19.540;2023-04-24T00:38:22;281.60;2278.40
70151;DHT22;57517;43.562;19.540;2023-04-24T00:40:48;281.70;2278.40
70151;DHT22;57517;43.562;19.540;2023-04-24T00:43:16;281.80;2278.40
70151;DHT22;57517;43.562;19.540;2023-04-24T00:45:41;281.90;2278.40
70151;DHT22;57517;43.562;19.540;2023-04-24T00:48:08;282.00;2278.40
70151;DHT22;57517;43.562;19.540;2023-04-24T00:50:36;282.00;2278.40
70151;DHT22;57517;43.562;19.540;2023-04-24T00:53:02;282.00;2278.40
70151;DHT22;57517;43.562;19.540;2023-04-24T00:55:28;281.70;2278.40
70151;DHT22;57517;43.562;19.540;2023-04-24T00:57:54;281.60;2278.40
70151;DHT22;57517;43.562;19.540;2023-04-24T01:00:21;256.90;2252.80
70151;DHT22;57517;43.562;19.540;2023-04-24T01:02:48;256.80;2252.80
70151;DHT22;57517;43.562;19.540;2023-04-24T01:05:15;256.80;2252.80
70151;DHT22;57517;43.562;19.540;2023-04-24T01:07:44;256.90;2252.80
70151;DHT22;57517;43.562;19.540;2023-04-24T01:10:11;256.80;2252.80
70151;DHT22;57517;43.562;19.540;2023-04-24T01:12:38;256.90;2252.80
70151;DHT22;57517;43.562;19.540;2023-04-24T01:15:04;256.80;2252.80
70151;DHT22;57517;43.562;19.540;2023-04-24T01:17:32;281.60;2278.40
70151;DHT22;57517;43.562;19.540;2023-04-24T01:19:59;281.60;2278.40
70151;DHT22;57517;43.562;19.540;2023-04-24T01:22:26;281.60;2278.40
70151;DHT22;57517;43.562;19.540;2023-04-24T01:24:52;281.80;2278.40
70151;DHT22;57517;43.562;19.540;2023-04-24T01:27:19;281.90;2278.40
70151;DHT22;57517;43.562;19.540;2023-04-24T01:29:45;282.00;2278.40
70151;DHT22;57517;43.562;19.540;2023-04-24T01:32:13;282.20;2278.40
70151;DHT22;57517;43.562;19.540;2023-04-24T01:34:39;282.20;2278.40
70151;DHT22;57517;43.562;19.540;2023-04-24T01:37:05;282.30;2278.40
70151;DHT22;57517;43.562;19.540;2023-04-24T01:39:31;282.20;2278.40
70151;DHT22;57517;43.562;19.540;2023-04-24T01:41:59;281.90;2278.40
70151;DHT22;57517;43.562;19.540;2023-04-24T01:44:26;281.90;2278.40
70151;DHT22;57517;43.562;19.540;2023-04-24T01:46:52;281.80;2278.40
70151;DHT22;57517;43.562;19.540;2023-04-24T01:49:19;281.80;2278.40
70151;DHT22;57517;43.562;19.540;2023-04-24T01:51:45;281.70;2278.40
70151;DHT22;57517;43.562;19.540;2023-04-24T01:54:11;281.80;2278.40
70151;DHT22;57517;43.562;19.540;2023-04-24T01:56:41;281.90;2278.40
70151;DHT22;57517;43.562;19.540;2023-04-24T01:59:10;281.80;2278.40
70151;DHT22;57517;43.562;19.540;2023-04-24T02:01:36;281.70;2278.40
70151;DHT22;57517;43.562;19.540;2023-04-24T02:04:03;281.70;2278.40
70151;DHT22;57517;43.562;19.540;2023-04-24T02:06:29;281.70;2278.40
70151;DHT22;57517;43.562;19.540;2023-04-24T02:08:59;281.60;2278.40
70151;DHT22;57517;43.562;19.540;2023-04-24T02:11:25;281.60;2278.40
70151;DHT22;57517;43.562;19.540;2023-04-24T02:13:52;281.70;2278.40
70151;DHT22;57517;43.562;19.540;2023-04-24T02:16:18;281.80;2278.40
70151;DHT22;57517;43.562;19.540;2023-04-24T02:18:44;281.90;2278.40
70151;DHT22;57517;43.562;19.540;2023-04-24T02:21:10;282.00;2278.40
70151;DHT22;57517;43.562;19.540;2023-04-24T02:23:36;282.10;2278.40
70151;DHT22;57517;43.562;19.540;2023-04-24T02:26:02;282.20;2278.40
70151;DHT22;57517;43.562;19.540;2023-04-24T02:28:28;282.20;2278.40
70151;DHT22;57517;43.562;19.540;2023-04-24T02:30:53;282.30;2278.40
70151;DHT22;57517;43.562;19.540;2023-04-24T02:33:19;282.10;2278.40
70151;DHT22;57517;43.562;19.540;2023-04-24T02:35:45;282.00;2278.40
70151;DHT22;57517;43.562;19.540;2023-04-24T02:38:11;281.90;2278.40
70151;DHT22;57517;43.562;19.540;2023-04-24T02:40:36;281.90;2278.40
70151;DHT22;57517;43.562;19.540;2023-04-24T02:43:02;281.80;2278.40
70151;DHT22;57517;43.562;19.540;2023-04-24T02:45:28;281.60;2278.40
70151;DHT22;57517;43.562;19.540;2023-04-24T02:47:54;281.70;2278.40
70151;DHT22;57517;43.562;19.540;2023-04-24T02:50:20;281.90;2278.40
70151;DHT22;57517;43.562;19.540;2023-04-24T02:52:45;281.90;2278.40
70151;DHT22;57517;43.562;19.540;2023-04-24T02:55:11;281.90;2278.40
70151;DHT22;57517;43.562;19.540;2023-04-24T02:57:37;281.80;2278.40
70151;DHT22;57517;43.562;19.540;2023-04-24T03:00:03;281.70;2278.40
70151;DHT22;57517;43.562;19.540;2023-04-24T03:02:32;281.70;2278.40
70151;DHT22;57517;43.562;19.540;2023-04-24T03:04:58;281.60;2278.40
70151;DHT22;57517;43.562;19.540;2023-04-24T03:07:24;281.60;2278.40
70151;DHT22;57517;43.562;19.540;2023-04-24T03:09:50;281.70;2278.40
70151;DHT22;57517;43.562;19.540;2023-04-24T03:12:15;281.60;2278.40
70151;DHT22;57517;43.562;19.540;2023-04-24T03:14:43;281.70;2278.40
70151;DHT22;57517;43.562;19.540;2023-04-24T03:17:09;281.80;2278.40
70151;DHT22;57517;43.562;19.540;2023-04-24T03:19:35;281.90;2278.40
70151;DHT22;57517;43.562;19.540;2023-04-24T03:22:02;281.80;2278.40
70151;DHT22;57517;43.562;19.540;2023-04-24T03:24:29;281.80;2278.40
70151;DHT22;57517;43.562;19.540;2023-04-24T03:26:56;281.80;2278.40
70151;DHT22;57517;43.562;19.540;2023-04-24T03:29:22;281.70;2278.40
70151;DHT22;57517;43.562;19.540;2023-04-24T03:31:48;256.80;2252.80
70151;DHT22;57517;43.562;19.540;2023-04-24T03:34:14;256.50;2252.80
70151;DHT22;57517;43.562;19.540;2023-04-24T03:36:39;256.20;2252.80
70151;DHT22;57517;43.562;19.540;2023-04-24T03:39:05;256.20;2252.80
70151;DHT22;57517;43.562;19.540;2023-04-24T03:41:31;231.30;2252.80
70151;DHT22;57517;43.562;19.540;2023-04-24T03:43:57;256.00;2252.80
70151;DHT22;57517;43.562;19.540;2023-04-24T03:46:22;256.00;2252.80
70151;DHT22;57517;43.562;19.540;2023-04-24T03:48:48;256.30;2252.80
70151;DHT22;57517;43.562;19.540;2023-04-24T03:51:14;256.40;2252.80
70151;DHT22;57517;43.562;19.540;2023-04-24T03:53:40;256.50;2252.80
70151;DHT22;57517;43.562;19.540;2023-04-24T03:56:05;256.70;2252.80
70151;DHT22;57517;43.562;19.540;2023-04-24T03:58:31;256.90;2252.80
70151;DHT22;57517;43.562;19.540;2023-04-24T04:00:57;256.90;2252.80
70151;DHT22;57517;43.562;19.540;2023-04-24T04:03:23;281.60;2278.40
70151;DHT22;57517;43.562;19.540;2023-04-24T04:05:50;281.70;2278.40
70151;DHT22;57517;43.562;19.540;2023-04-24T04:08:16;281.60;2278.40
70151;DHT22;57517;43.562;19.540;2023-04-24T04:10:42;256.80;2252.80
70151;DHT22;57517;43.562;19.540;2023-04-24T04:13:07;256.50;2252.80
70151;DHT22;57517;43.562;19.540;2023-04-24T04:15:33;256.50;2252.80
70151;DHT22;57517;43.562;19.540;2023-04-24T04:17:59;256.70;2252.80
70151;DHT22;57517;43.562;19.540;2023-04-24T04:20:25;256.90;2252.80
70151;DHT22;57517;43.562;19.540;2023-04-24T04:22:51;256.90;2252.80
70151;DHT22;57517;43.562;19.540;2023-04-24T04:25:16;281.70;2278.40
70151;DHT22;57517;43.562;19.540;2023-04-24T04:27:45;256.90;2252.80
70151;DHT22;57517;43.562;19.540;2023-04-24T04:30:13;256.90;2252.80
70151;DHT22;57517;43.562;19.540;2023-04-24T04:32:39;281.70;2278.40
70151;DHT22;57517;43.562;19.540;2023-04-24T04:35:05;281.70;2278.40
70151;DHT22;57517;43.562;19.540;2023-04-24T04:37:32;281.70;2278.40
70151;DHT22;57517;43.562;19.540;2023-04-24T04:40:02;281.60;2278.40
70151;DHT22;57517;43.562;19.540;2023-04-24T04:42:37;256.90;2252.80
70151;DHT22;57517;43.562;19.540;2023-04-24T04:45:07;281.70;2278.40
70151;DHT22;57517;43.562;19.540;2023-04-24T04:47:34;281.70;2278.40
70151;DHT22;57517;43.562;19.540;2023-04-24T04:50:00;281.70;2278.40
70151;DHT22;57517;43.562;19.540;2023-04-24T04:52:26;281.70;2278.40
70151;DHT22;57517;43.562;19.540;2023-04-24T04:54:52;281.60;2278.40
70151;DHT22;57517;43.562;19.540;2023-04-24T04:57:18;281.90;2278.40
70151;DHT22;57517;43.562;19.540;2023-04-24T04:59:44;281.90;2278.40
70151;DHT22;57517;43.562;19.540;2023-04-24T05:02:10;281.80;2278.40
70151;DHT22;57517;43.562;19.540;2023-04-24T05:04:36;281.90;2278.40
70151;DHT22;57517;43.562;19.540;2023-04-24T05:07:01;281.80;2278.40
70151;DHT22;57517;43.562;19.540;2023-04-24T05:09:28;281.90;2278.40
70151;DHT22;57517;43.562;19.540;2023-04-24T05:11:55;281.90;2278.40
70151;DHT22;57517;43.562;19.540;2023-04-24T05:14:21;282.00;2278.40
70151;DHT22;57517;43.562;19.540;2023-04-24T05:16:47;282.00;2278.40
70151;DHT22;57517;43.562;19.540;2023-04-24T05:19:13;282.10;2278.40
70151;DHT22;57517;43.562;19.540;2023-04-24T05:21:42;282.20;2278.40
70151;DHT22;57517;43.562;19.540;2023-04-24T05:24:08;282.40;2278.40
70151;DHT22;57517;43.562;19.540;2023-04-24T05:26:33;307.20;2304.00
70151;DHT22;57517;43.562;19.540;2023-04-24T05:29:01;307.50;2304.00
70151;DHT22;57517;43.562;19.540;2023-04-24T05:31:27;307.80;2304.00
70151;DHT22;57517;43.562;19.540;2023-04-24T05:33:53;308.00;2304.00
70151;DHT22;57517;43.562;19.540;2023-04-24T05:36:19;332.80;2329.60
70151;DHT22;57517;43.562;19.540;2023-04-24T05:38:45;332.90;2329.60
70151;DHT22;57517;43.562;19.540;2023-04-24T05:41:11;307.80;2304.00
70151;DHT22;57517;43.562;19.540;2023-04-24T05:43:36;307.70;2304.00
70151;DHT22;57517;43.562;19.540;2023-04-24T05:46:02;307.80;2304.00
70151;DHT22;57517;43.562;19.540;2023-04-24T05:48:28;307.80;2304.00
70151;DHT22;57517;43.562;19.540;2023-04-24T05:50:54;308.10;2304.00
70151;DHT22;57517;43.562;19.540;2023-04-24T05:53:20;332.90;2329.60
70151;DHT22;57517;43.562;19.540;2023-04-24T05:55:47;333.30;2329.60
70151;DHT22;57517;43.562;19.540;2023-04-24T05:58:12;333.70;2329.60
70151;DHT22;57517;43.562;19.540;2023-04-24T06:00:38;358.50;2329.60
70151;DHT22;57517;43.562;19.540;2023-04-24T06:03:08;358.50;2329.60
70151;DHT22;57517;43.562;19.540;2023-04-24T06:05:34;358.40;2329.60
70151;DHT22;57517;43.562;19.540;2023-04-24T06:08:00;358.50;2329.60
70151;DHT22;57517;43.562;19.540;2023-04-24T06:10:26;358.70;2329.60
70151;DHT22;57517;43.562;19.540;2023-04-24T06:12:52;358.60;2329.60
70151;DHT22;57517;43.562;19.540;2023-04-24T06:15:21;358.50;2329.60
70151;DHT22;57517;43.562;19.540;2023-04-24T06:17:47;358.60;2329.60
70151;DHT22;57517;43.562;19.540;2023-04-24T06:20:13;358.70;2329.60
70151;DHT22;57517;43.562;19.540;2023-04-24T06:22:39;358.40;2329.60
70151;DHT22;57517;43.562;19.540;2023-04-24T06:25:06;358.40;2329.60
70151;DHT22;57517;43.562;19.540;2023-04-24T06:27:32;358.40;2329.60
70151;DHT22;57517;43.562;19.540;2023-04-24T06:29:58;358.40;2329.60
70151;DHT22;57517;43.562;19.540;2023-04-24T06:32:24;333.70;2329.60
70151;DHT22;57517;43.562;19.540;2023-04-24T06:34:53;358.40;2329.60
70151;DHT22;57517;43.562;19.540;2023-04-24T06:37:22;358.50;2329.60
70151;DHT22;57517;43.562;19.540;2023-04-24T06:39:48;358.90;2329.60
70151;DHT22;57517;43.562;19.540;2023-04-24T06:42:14;359.20;2329.60
70151;DHT22;57517;43.562;19.540;2023-04-24T06:44:40;384.10;2278.40
70151;DHT22;57517;43.562;19.540;2023-04-24T06:47:09;384.70;2176.00
70151;DHT22;57517;43.562;19.540;2023-04-24T06:49:37;409.80;2073.60
70151;DHT22;57517;43.562;19.540;2023-04-24T06:52:03;410.30;1945.60
70151;DHT22;57517;43.562;19.540;2023-04-24T06:54:30;410.50;1894.40
70151;DHT22;57517;43.562;19.540;2023-04-24T06:56:57;435.40;1843.20
70151;DHT22;57517;43.562;19.540;2023-04-24T06:59:24;435.40;1817.60
70151;DHT22;57517;43.562;19.540;2023-04-24T07:01:50;435.50;1817.60
70151;DHT22;57517;43.562;19.540;2023-04-24T07:04:17;436.00;1792.00
70151;DHT22;57517;43.562;19.540;2023-04-24T07:06:43;436.00;1715.20
70151;DHT22;57517;43.562;19.540;2023-04-24T07:09:09;460.80;1664.00
70151;DHT22;57517;43.562;19.540;2023-04-24T07:11:35;460.90;1664.00
70151;DHT22;57517;43.562;19.540;2023-04-24T07:14:02;436.10;1715.20
70151;DHT22;57517;43.562;19.540;2023-04-24T07:16:28;435.70;1664.00
70151;DHT22;57517;43.562;19.540;2023-04-24T07:18:54;435.60;1715.20
70151;DHT22;57517;43.562;19.540;2023-04-24T07:21:19;436.10;1740.80
70151;DHT22;57517;43.562;19.540;2023-04-24T07:23:45;461.50;1689.60
70151;DHT22;57517;43.562;19.540;2023-04-24T07:26:11;486.90;1587.20
70151;DHT22;57517;43.562;19.540;2023-04-24T07:28:37;538.10;1433.60
70151;DHT22;57517;43.562;19.540;2023-04-24T07:31:02;538.50;1382.40
70151;DHT22;57517;43.562;19.540;2023-04-24T07:33:28;563.90;1305.60
70151;DHT22;57517;43.562;19.540;2023-04-24T07:35:54;564.00;1254.40
70151;DHT22;57517;43.562;19.540;2023-04-24T07:38:20;589.50;1203.20
70151;DHT22;57517;43.562;19.540;2023-04-24T07:40:48;589.20;1228.80
70151;DHT22;57517;43.562;19.540;2023-04-24T07:43:14;589.00;1228.80
70151;DHT22;57517;43.562;19.540;2023-04-24T07:45:40;564.00;1254.40
70151;DHT22;57517;43.562;19.540;2023-04-24T07:48:06;563.40;1280.00
70151;DHT22;57517;43.562;19.540;2023-04-24T07:50:32;563.80;1254.40
70151;DHT22;57517;43.562;19.540;2023-04-24T07:52:57;563.80;1254.40
70151;DHT22;57517;43.562;19.540;2023-04-24T07:55:23;589.40;1203.20
70151;DHT22;57517;43.562;19.540;2023-04-24T07:57:49;614.40;1203.20
70151;DHT22;57517;43.562;19.540;2023-04-24T08:00:15;614.60;1177.60
70151;DHT22;57517;43.562;19.540;2023-04-24T08:02:41;614.50;1152.00
70151;DHT22;57517;43.562;19.540;2023-04-24T08:05:07;614.40;1177.60
70151;DHT22;57517;43.562;19.540;2023-04-24T08:07:33;589.50;1203.20
70151;DHT22;57517;43.562;19.540;2023-04-24T08:10:01;589.70;1203.20
70151;DHT22;57517;43.562;19.540;2023-04-24T08:12:29;614.40;1203.20
70151;DHT22;57517;43.562;19.540;2023-04-24T08:14:55;589.10;1228.80
70151;DHT22;57517;43.562;19.540;2023-04-24T08:17:20;589.30;1228.80
70151;DHT22;57517;43.562;19.540;2023-04-24T08:19:46;589.50;1228.80
70151;DHT22;57517;43.562;19.540;2023-04-24T08:22:17;589.40;1228.80
70151;DHT22;57517;43.562;19.540;2023-04-24T08:24:43;589.40;1228.80
70151;DHT22;57517;43.562;19.540;2023-04-24T08:27:09;614.40;1203.20
70151;DHT22;57517;43.562;19.540;2023-04-24T08:29:36;640.00;1100.80
70151;DHT22;57517;43.562;19.540;2023-04-24T08:32:02;665.90;1100.80
70151;DHT22;57517;43.562;19.540;2023-04-24T08:34:28;692.10;972.80
70151;DHT22;57517;43.562;19.540;2023-04-24T08:36:54;691.20;998.40
70151;DHT22;57517;43.562;19.540;2023-04-24T08:39:20;692.00;972.80
70151;DHT22;57517;43.562;19.540;2023-04-24T08:41:48;691.70;972.80
70151;DHT22;57517;43.562;19.540;2023-04-24T08:44:14;717.40;972.80
70151;DHT22;57517;43.562;19.540;2023-04-24T08:46:43;716.90;972.80
70151;DHT22;57517;43.562;19.540;2023-04-24T08:49:12;666.30;1049.60
70151;DHT22;57517;43.562;19.540;2023-04-24T08:51:39;665.80;1075.20
70151;DHT22;57517;43.562;19.540;2023-04-24T08:54:05;640.40;1075.20
70151;DHT22;57517;43.562;19.540;2023-04-24T08:56:34;640.30;1100.80
70151;DHT22;57517;43.562;19.540;2023-04-24T08:59:04;640.10;1100.80
70151;DHT22;57517;43.562;19.540;2023-04-24T09:01:32;614.70;1100.80
70151;DHT22;57517;43.562;19.540;2023-04-24T09:04:02;614.50;1152.00
70151;DHT22;57517;43.562;19.540;2023-04-24T09:06:30;614.40;1177.60
70151;DHT22;57517;43.562;19.540;2023-04-24T09:09:00;614.40;1152.00
70151;DHT22;57517;43.562;19.540;2023-04-24T09:11:27;614.50;1152.00
70151;DHT22;57517;43.562;19.540;2023-04-24T09:13:54;614.40;1152.00
70151;DHT22;57517;43.562;19.540;2023-04-24T09:16:20;589.20;1203.20
70151;DHT22;57517;43.562;19.540;2023-04-24T09:18:48;588.80;1228.80
70151;DHT22;57517;43.562;19.540;2023-04-24T09:21:14;563.90;1280.00
70151;DHT22;57517;43.562;19.540;2023-04-24T09:23:41;588.80;1305.60
70151;DHT22;57517;43.562;19.540;2023-04-24T09:26:09;588.90;1126.40
70151;DHT22;57517;43.562;19.540;2023-04-24T09:28:37;588.80;1049.60
70151;DHT22;57517;43.562;19.540;2023-04-24T09:31:14;563.90;1024.00
70151;DHT22;57517;43.562;19.540;2023-04-24T09:34:04;563.70;1049.60
70151;DHT22;57517;43.562;19.540;2023-04-24T09:36:38;563.20;1075.20
70151;DHT22;57517;43.562;19.540;2023-04-24T09:39:15;538.40;1075.20
70151;DHT22;57517;43.562;19.540;2023-04-24T09:41:56;538.40;1100.80
70151;DHT22;57517;43.562;19.540;2023-04-24T09:44:25;538.20;1100.80
70151;DHT22;57517;43.562;19.540;2023-04-24T09:46:54;537.90;1126.40
70151;DHT22;57517;43.562;19.540;2023-04-24T09:49:30;537.60;1152.00
70151;DHT22;57517;43.562;19.540;2023-04-24T09:52:06;512.80;1152.00
70151;DHT22;57517;43.562;19.540;2023-04-24T09:54:33;512.70;1203.20
70151;DHT22;57517;43.562;19.540;2023-04-24T09:56:58;512.60;1228.80
70151;DHT22;57517;43.562;19.540;2023-04-24T09:59:26;512.20;1228.80
70151;DHT22;57517;43.562;19.540;2023-04-24T10:01:51;487.20;1305.60
70151;DHT22;57517;43.562;19.540;2023-04-24T10:04:25;486.90;1331.20
70151;DHT22;57517;43.562;19.540;2023-04-24T10:06:53;486.60;1382.40
70151;DHT22;57517;43.562;19.540;2023-04-24T10:09:21;486.60;1433.60
70151;DHT22;57517;43.562;19.540;2023-04-24T10:11:49;486.60;1510.40
70151;DHT22;57517;43.562;19.540;2023-04-24T10:14:20;486.50;1510.40
70151;DHT22;57517;43.562;19.540;2023-04-24T10:16:47;461.70;1510.40
70151;DHT22;57517;43.562;19.540;2023-04-24T10:19:14;461.40;1792.00
70151;DHT22;57517;43.562;19.540;2023-04-24T10:21:42;461.40;1664.00
70151;DHT22;57517;43.562;19.540;2023-04-24T10:24:12;461.30;1715.20
70151;DHT22;57517;43.562;19.540;2023-04-24T10:26:38;461.30;1740.80
70151;DHT22;57517;43.562;19.540;2023-04-24T10:29:05;461.40;1766.40
70151;DHT22;57517;43.562;19.540;2023-04-24T10:31:36;461.40;1766.40
70151;DHT22;57517;43.562;19.540;2023-04-24T10:34:05;461.40;1843.20
70151;DHT22;57517;43.562;19.540;2023-04-24T10:36:35;461.30;1843.20
70151;DHT22;57517;43.562;19.540;2023-04-24T10:39:03;461.40;1996.80
70151;DHT22;57517;43.562;19.540;2023-04-24T10:41:32;461.40;1996.80
70151;DHT22;57517;43.562;19.540;2023-04-24T10:44:07;461.50;2022.40
70151;DHT22;57517;43.562;19.540;2023-04-24T10:46:35;461.50;2048.00
70151;DHT22;57517;43.562;19.540;2023-04-24T10:49:05;461.60;2150.40
70151;DHT22;57517;43.562;19.540;2023-04-24T10:51:51;461.60;2201.60
70151;DHT22;57517;43.562;19.540;2023-04-24T10:54:36;461.60;2201.60
70151;DHT22;57517;43.562;19.540;2023-04-24T11:00:14;461.60;2304.00
70151;DHT22;57517;43.562;19.540;2023-04-24T11:02:41;461.40;2329.60
70151;DHT22;57517;43.562;19.540;2023-04-24T11:05:18;461.40;2380.80
70151;DHT22;57517;43.562;19.540;2023-04-24T11:08:13;461.50;2278.40
70151;DHT22;57517;43.562;19.540;2023-04-24T11:10:43;461.30;2355.20
70151;DHT22;57517;43.562;19.540;2023-04-24T11:13:09;461.50;2355.20
70151;DHT22;57517;43.562;19.540;2023-04-24T11:15:35;461.50;2252.80
70151;DHT22;57517;43.562;19.540;2023-04-24T11:18:01;461.50;2355.20
70151;DHT22;57517;43.562;19.540;2023-04-24T11:20:27;461.70;2355.20
70151;DHT22;57517;43.562;19.540;2023-04-24T11:22:54;461.70;2099.20
70151;DHT22;57517;43.562;19.540;2023-04-24T11:25:21;461.60;2048.00
70151;DHT22;57517;43.562;19.540;2023-04-24T11:27:49;461.50;2176.00
70151;DHT22;57517;43.562;19.540;2023-04-24T11:30:20;461.40;2355.20
70151;DHT22;57517;43.562;19.540;2023-04-24T11:32:50;461.50;2329.60
70151;DHT22;57517;43.562;19.540;2023-04-24T11:35:22;461.60;2329.60
70151;DHT22;57517;43.562;19.540;2023-04-24T11:37:52;461.70;2278.40
70151;DHT22;57517;43.562;19.540;2023-04-24T11:40:20;486.50;2176.00
70151;DHT22;57517;43.562;19.540;2023-04-24T11:42:50;461.70;2201.60
70151;DHT22;57517;43.562;19.540;2023-04-24T11:45:18;461.70;2176.00
70151;DHT22;57517;43.562;19.540;2023-04-24T11:47:44;486.40;2022.40
70151;DHT22;57517;43.562;19.540;2023-04-24T11:50:16;486.40;1843.20
70151;DHT22;57517;43.562;19.540;2023-04-24T11:52:45;486.60;1996.80
70151;DHT22;57517;43.562;19.540;2023-04-24T11:57:42;486.80;1817.60
70151;DHT22;57517;43.562;19.540;2023-04-24T12:02:41;486.90;1689.60
70151;DHT22;57517;43.562;19.540;2023-04-24T12:05:07;486.90;1715.20
70151;DHT22;57517;43.562;19.540;2023-04-24T12:07:43;486.80;1715.20
70151;DHT22;57517;43.562;19.540;2023-04-24T12:10:09;486.80;1689.60
70151;DHT22;57517;43.562;19.540;2023-04-24T12:12:35;486.80;1689.60
70151;DHT22;57517;43.562;19.540;2023-04-24T12:15:01;486.70;1740.80
70151;DHT22;57517;43.562;19.540;2023-04-24T12:17:32;486.70;1740.80
70151;DHT22;57517;43.562;19.540;2023-04-24T12:20:07;486.70;1715.20
70151;DHT22;57517;43.562;19.540;2023-04-24T12:22:53;486.60;1740.80
70151;DHT22;57517;43.562;19.540;2023-04-24T12:25:27;486.60;1740.80
70151;DHT22;57517;43.562;19.540;2023-04-24T12:30:34;486.50;1740.80
70151;DHT22;57517;43.562;19.540;2023-04-24T12:33:00;486.50;1740.80
70151;DHT22;57517;43.562;19.540;2023-04-24T12:35:31;486.60;1715.20
70151;DHT22;57517;43.562;19.540;2023-04-24T12:38:11;486.60;1766.40
70151;DHT22;57517;43.562;19.540;2023-04-24T12:40:38;486.70;1740.80
70151;DHT22;57517;43.562;19.540;2023-04-24T12:43:15;486.70;1715.20
70151;DHT22;57517;43.562;19.540;2023-04-24T12:45:41;486.80;1740.80
70151;DHT22;57517;43.562;19.540;2023-04-24T12:48:07;486.90;1638.40
70151;DHT22;57517;43.562;19.540;2023-04-24T12:50:32;486.90;1587.20
70151;DHT22;57517;43.562;19.540;2023-04-24T12:52:58;487.00;1638.40
70151;DHT22;57517;43.562;19.540;2023-04-24T12:55:24;487.20;1612.80
70151;DHT22;57517;43.562;19.540;2023-04-24T12:57:50;512.00;1536.00
70151;DHT22;57517;43.562;19.540;2023-04-24T13:00:16;512.00;1510.40
70151;DHT22;57517;43.562;19.540;2023-04-24T13:02:42;512.00;1459.20
70151;DHT22;57517;43.562;19.540;2023-04-24T13:05:08;487.20;1536.00
70151;DHT22;57517;43.562;19.540;2023-04-24T13:07:34;486.90;1459.20
70151;DHT22;57517;43.562;19.540;2023-04-24T13:10:00;486.80;1561.60
70151;DHT22;57517;43.562;19.540;2023-04-24T13:12:26;486.50;1459.20
70151;DHT22;57517;43.562;19.540;2023-04-24T13:14:52;461.70;1433.60
70151;DHT22;57517;43.562;19.540;2023-04-24T13:17:18;461.50;1408.00
70151;DHT22;57517;43.562;19.540;2023-04-24T13:19:44;461.50;1433.60
70151;DHT22;57517;43.562;19.540;2023-04-24T13:22:12;461.40;1459.20
70151;DHT22;57517;43.562;19.540;2023-04-24T13:24:38;461.10;1433.60
70151;DHT22;57517;43.562;19.540;2023-04-24T13:27:08;461.10;1433.60
70151;DHT22;57517;43.562;19.540;2023-04-24T13:29:34;461.00;1433.60
70151;DHT22;57517;43.562;19.540;2023-04-24T13:32:00;460.90;1433.60
70151;DHT22;57517;43.562;19.540;2023-04-24T13:34:26;460.90;1433.60
70151;DHT22;57517;43.562;19.540;2023-04-24T13:36:54;460.90;1433.60
70151;DHT22;57517;43.562;19.540;2023-04-24T13:39:21;460.80;1433.60
70151;DHT22;57517;43.562;19.540;2023-04-24T13:41:47;460.90;1433.60
70151;DHT22;57517;43.562;19.540;2023-04-24T13:44:17;460.90;1433.60
70151;DHT22;57517;43.562;19.540;2023-04-24T13:46:44;460.80;1433.60
70151;DHT22;57517;43.562;19.540;2023-04-24T13:49:14;460.80;1433.60
70151;DHT22;57517;43.562;19.540;2023-04-24T13:51:41;460.80;1433.60
70151;DHT22;57517;43.562;19.540;2023-04-24T13:54:07;460.90;1408.00
70151;DHT22;57517;43.562;19.540;2023-04-24T13:56:32;460.90;1408.00
70151;DHT22;57517;43.562;19.540;2023-04-24T13:58:58;460.90;1408.00
70151;DHT22;57517;43.562;19.540;2023-04-24T14:01:25;461.00;1408.00
70151;DHT22;57517;43.562;19.540;2023-04-24T14:03:51;461.10;1408.00
70151;DHT22;57517;43.562;19.540;2023-04-24T14:06:18;461.10;1408.00
70151;DHT22;57517;43.562;19.540;2023-04-24T14:08:44;461.20;1382.40
70151;DHT22;57517;43.562;19.540;2023-04-24T14:11:10;461.20;1408.00
70151;DHT22;57517;43.562;19.540;2023-04-24T14:13:37;461.30;1408.00
70151;DHT22;57517;43.562;19.540;2023-04-24T14:16:03;461.50;1382.40
70151;DHT22;57517;43.562;19.540;2023-04-24T14:18:29;461.40;1382.40
70151;DHT22;57517;43.562;19.540;2023-04-24T14:20:55;461.50;1382.40
70151;DHT22;57517;43.562;19.540;2023-04-24T14:23:21;461.30;1356.80
70151;DHT22;57517;43.562;19.540;2023-04-24T14:25:47;461.30;1382.40
70151;DHT22;57517;43.562;19.540;2023-04-24T14:28:20;461.20;1356.80
70151;DHT22;57517;43.562;19.540;2023-04-24T14:30:46;461.10;1382.40
70151;DHT22;57517;43.562;19.540;2023-04-24T14:33:12;461.10;1382.40
70151;DHT22;57517;43.562;19.540;2023-04-24T14:35:39;460.90;1382.40
70151;DHT22;57517;43.562;19.540;2023-04-24T14:38:05;460.90;1408.00
70151;DHT22;57517;43.562;19.540;2023-04-24T14:40:31;460.80;1408.00
70151;DHT22;57517;43.562;19.540;2023-04-24T14:42:58;460.80;1408.00
70151;DHT22;57517;43.562;19.540;2023-04-24T14:45:25;460.80;1433.60
70151;DHT22;57517;43.562;19.540;2023-04-24T14:47:51;460.80;1408.00